Latest Coastal Weather Observations for Newcastle Nobbys

IDN60701

Issued at 7:21 am EDT Thursday 23 November 2017 (issued every 10 minutes, with the page automatically refreshed every 10 minutes)

About coastal observations | Map of coastal stations | Coastal observations for NSW | Marine services | Other Formats
Station Details ID: 061055 Name: NEWCASTLE NOBBYS SIGNAL STATION AWS Lat: -32.92 Lon: 151.80 Height: 33.0 m
Data from the previous 72 hours. | See also: Recent months at Newcastle Nobbys
Date/Time
EDT
Temp
°C
Wind Pressure Rain since
9am
mm
Weather Cloud Vis
km
Sea
Height
m
Swell
Dir  Spd
kts
Gust
kts
hPa Trend Height
m
Period
s
Dir
23/07:00am 19.9 ESE 1 1 - - 0.0 - - - - - - -
23/06:30am 18.3 NE 1 2 - - 0.0 - - - - - - -
23/06:00am 17.8 ENE 1 2 - - 0.0 - - - - - - -
23/05:30am 17.7 NNE 2 3 - - 0.0 - - - - - - -
23/05:00am 17.7 NE 3 4 - - 0.0 - - - - - - -
23/04:30am 17.7 NE 4 5 - - 0.0 - - - - - - -
23/04:00am 17.9 NE 4 5 - - 0.0 - - - - - - -
23/03:30am 17.9 NE 5 7 - - 0.0 - - - - - - -
23/03:00am 18.1 ENE 3 4 - - 0.0 - - - - - - -
23/02:30am 18.2 ENE 3 3 - - 0.0 - - - - - - -
23/02:00am 18.4 NE 2 3 - - 0.0 - - - - - - -
23/01:30am 18.5 NE 4 6 - - 0.0 - - - - - - -
23/01:00am 18.5 NE 5 7 - - 0.0 - - - - - - -
23/12:30am 18.4 NE 5 8 - - 0.0 - - - - - - -
23/12:00am 18.7 ENE 5 7 - - 0.0 - - - - - - -
 
Date/Time
EDT
Temp
°C
Wind Pressure Rain since
9am
mm
Weather Cloud Vis
km
Sea
Height
m
Swell
Dir  Spd
kts
Gust
kts
hPa Trend Height
m
Period
s
Dir
22/11:30pm 18.6 ENE 4 5 - - 0.0 - - - - - - -
22/11:00pm 18.9 ENE 5 7 - - 0.0 - - - - - - -
22/10:30pm 18.8 ENE 7 9 - - 0.0 - - - - - - -
22/10:00pm 18.7 ENE 9 11 - - 0.0 - - - - - - -
22/09:30pm 19.1 E 8 9 - - 0.0 - - - - - - -
22/09:00pm 19.1 E 7 9 - - 0.0 - - - - - - -
22/08:30pm 19.2 E 9 10 - - 0.0 - - - - - - -
22/08:00pm 19.2 E 9 11 - - 0.0 - - - - - - -
22/07:30pm 19.4 E 10 11 - - 0.0 - - - - - - -
22/07:00pm 19.5 ESE 9 10 - - 0.0 - - - - - - -
22/06:30pm 19.9 ESE 10 11 - - 0.0 - - - - - - -
22/06:00pm 20.1 ESE 9 11 - - 0.0 - - - - - - -
22/05:30pm 19.3 SE 10 11 - - 0.0 - - - - - - -
22/05:00pm 20.7 ESE 11 13 - - 0.0 - - - - - - -
22/04:30pm 20.2 ESE 6 9 - - 0.0 - - - - - - -
22/04:00pm 20.0 ESE 12 14 - - 0.0 - - - - - - -
22/03:30pm 21.9 E 8 9 - - 0.0 - - - - - - -
22/03:00pm 21.7 SE 10 12 - - 0.0 - - - - - - -
22/02:30pm 21.7 SE 9 10 - - 0.0 - - - - - - -
22/02:00pm 22.0 SE 9 11 - - 0.0 - - - - - - -
22/01:30pm 22.1 SE 9 11 - - 0.0 - - - - - - -
22/01:00pm 22.2 SE 8 10 - - 0.0 - - - - - - -
22/12:30pm 22.1 SE 7 8 - - 0.0 - - - - - - -
22/12:00pm 22.4 SE 5 6 - - 0.0 - - - - - - -
22/11:30am 22.2 SE 6 7 - - 0.0 - - - - - - -
22/11:00am 22.1 SE 6 7 - - 0.0 - - - - - - -
22/10:30am 22.0 SE 5 6 - - 0.0 - - - - - - -
22/10:00am 21.3 SSE 5 6 - - 0.0 - - - - - - -
22/09:30am 21.5 S 4 4 - - 0.0 - - - - - - -
22/09:00am 21.1 SE 4 4 - - 0.0 - - - - - - -
22/08:30am 20.8 SE 6 7 - - 0.0 - - - - - - -
22/08:00am 20.4 ESE 6 7 - - 0.0 - - - - - - -
22/07:30am 19.9 ESE 4 5 - - 0.0 - - - - - - -
22/07:00am 19.7 ESE 2 3 - - 0.0 - - - - - - -
22/06:30am 18.7 SSE 3 3 - - 0.0 - - - - - - -
22/06:00am 18.0 SSE 3 4 - - 0.0 - - - - - - -
22/05:30am 17.8 S 3 4 - - 0.0 - - - - - - -
22/05:00am 17.7 S 5 5 - - 0.0 - - - - - - -
22/04:30am 17.8 S 5 6 - - 0.0 - - - - - - -
22/04:00am 17.8 S 5 6 - - 0.0 - - - - - - -
22/03:30am 17.8 SSW 4 5 - - 0.0 - - - - - - -
22/03:00am 17.7 SSW 3 4 - - 0.0 - - - - - - -
22/02:30am 18.0 S 3 4 - - 0.0 - - - - - - -
22/02:00am 18.1 WSW 1 2 - - 0.0 - - - - - - -
22/01:30am 17.9 W 2 3 - - 0.0 - - - - - - -
22/01:00am 17.9 NNW 3 4 - - 0.0 - - - - - - -
22/12:30am 17.7 N 3 4 - - 0.0 - - - - - - -
22/12:00am 18.0 NE 1 2 - - 0.0 - - - - - - -
 
Date/Time
EDT
Temp
°C
Wind Pressure Rain since
9am
mm
Weather Cloud Vis
km
Sea
Height
m
Swell
Dir  Spd
kts
Gust
kts
hPa Trend Height
m
Period
s
Dir
21/11:30pm 18.2 ENE 1 2 - - 0.0 - - - - - - -
21/11:00pm 18.3 E 3 4 - - 0.0 - - - - - - -
21/10:30pm 18.3 E 3 3 - - 0.0 - - - - - - -
21/10:00pm 18.5 E 3 4 - - 0.0 - - - - - - -
21/09:30pm 18.6 E 5 6 - - 0.0 - - - - - - -
21/09:00pm 18.7 E 5 6 - - 0.0 - - - - - - -
21/08:30pm 18.7 ENE 5 7 - - 0.0 - - - - - - -
21/08:00pm 18.9 ENE 7 9 - - 0.0 - - - - - - -
21/07:30pm 19.4 E 8 10 - - 0.0 - - - - - - -
21/07:00pm 19.6 E 8 10 - - 0.0 - - - - - - -
21/06:30pm 19.8 ESE 10 11 - - 0.0 - - - - - - -
21/06:00pm 20.1 ESE 11 13 - - 0.0 - - - - - - -
21/05:30pm 20.2 ESE 10 12 - - 0.0 - - - - - - -
21/05:00pm 20.9 ESE 9 11 - - 0.0 - - - - - - -
21/04:30pm 20.8 SE 9 10 - - 0.0 - - - - - - -
21/04:00pm 21.1 ESE 8 9 - - 0.0 - - - - - - -
21/03:30pm 21.0 ESE 9 10 - - 0.0 - - - - - - -
21/03:00pm 21.1 SE 10 11 - - 0.0 - - - - - - -
21/02:30pm 21.1 SE 10 11 - - 0.0 - - - - - - -
21/02:00pm 21.1 SE 10 11 - - 0.0 - - - - - - -
21/01:30pm 21.0 SE 9 10 - - 0.0 - - - - - - -
21/01:00pm 21.0 SE 9 10 - - 0.0 - - - - - - -
21/12:30pm 20.9 SE 8 9 - - 0.0 - - - - - - -
21/12:00pm 20.8 SE 8 8 - - 0.0 - - - - - - -
21/11:30am 20.9 SE 8 9 - - 0.0 - - - - - - -
21/11:00am 20.8 SSE 8 9 - - 0.0 - - - - - - -
21/10:30am 21.0 SSE 6 6 - - 0.0 - - - - - - -
21/10:00am 20.4 SSE 6 7 - - 0.0 - - - - - - -
21/09:30am 20.1 S 6 6 - - 0.0 - - - - - - -
21/09:00am 19.2 S 7 8 - - 0.0 - - - - - - -
21/08:30am 19.0 S 7 7 - - 0.0 - - - - - - -
21/08:00am 18.9 SSE 7 7 - - 0.0 - - - - - - -
21/07:30am 19.0 S 7 8 - - 0.0 - - - - - - -
21/07:00am 18.7 SSE 7 9 - - 0.0 - - - - - - -
21/06:30am 18.3 SSE 9 10 - - 0.0 - - - - - - -
21/06:00am 18.2 SSE 9 10 - - 0.0 - - - - - - -
21/05:30am 18.3 SE 12 13 - - 0.0 - - - - - - -
21/05:00am 18.2 SE 9 12 - - 0.0 - - - - - - -
21/04:30am 18.4 SE 10 11 - - 0.0 - - - - - - -
21/04:00am 18.3 SE 9 10 - - 0.0 - - - - - - -
21/03:30am 18.2 SE 8 10 - - 0.0 - - - - - - -
21/03:00am 18.2 ESE 6 7 - - 0.0 - - - - - - -
21/02:30am 18.1 ESE 8 9 - - 0.0 - - - - - - -
21/02:00am 18.3 SE 4 5 - - 0.0 - - - - - - -
21/01:30am 18.4 SSE 3 4 - - 0.0 - - - - - - -
21/01:00am 18.3 SSE 2 3 - - 0.0 - - - - - - -
21/12:30am 18.4 SSE 5 7 - - 0.0 - - - - - - -
21/12:00am 18.4 S 5 6 - - 0.0 - - - - - - -
 
Date/Time
EDT
Temp
°C
Wind Pressure Rain since
9am
mm
Weather Cloud Vis
km
Sea
Height
m
Swell
Dir  Spd
kts
Gust
kts
hPa Trend Height
m
Period
s
Dir
20/11:30pm 18.4 SSE 6 7 - - 0.0 - - - - - - -
20/11:00pm 18.3 SSE 4 5 - - 0.0 - - - - - - -
20/10:30pm 18.5 SE 5 5 - - 0.0 - - - - - - -
20/10:00pm 18.4 SE 5 5 - - 0.0 - - - - - - -
20/09:30pm 18.6 ESE 7 7 - - 0.0 - - - - - - -
20/09:00pm 18.6 SE 7 8 - - 0.0 - - - - - - -
20/08:30pm 18.7 SE 7 8 - - 0.0 - - - - - - -
20/08:00pm 18.9 ESE 9 9 - - 0.0 - - - - - - -
20/07:30pm 18.9 ESE 9 10 - - 0.0 - - - - - - -
20/07:00pm 19.3 SE 8 9 - - 0.0 - - - - - - -
20/06:30pm 19.5 SE 8 10 - - 0.0 - - - - - - -
20/06:00pm 19.8 SE 8 9 - - 0.0 - - - - - - -
20/05:30pm 19.7 ESE 8 9 - - 0.0 - - - - - - -
20/05:00pm 19.9 ESE 11 12 - - 0.0 - - - - - - -
20/04:30pm 20.3 SE 10 11 - - 0.0 - - - - - - -
20/04:00pm 20.5 SE 10 11 - - 0.0 - - - - - - -
20/03:30pm 20.7 SE 10 13 - - 0.0 - - - - - - -
20/03:00pm 20.6 SE 9 10 - - 0.0 - - - - - - -
20/02:30pm 20.8 SE 9 10 - - 0.0 - - - - - - -
20/02:00pm 21.0 SE 9 11 - - 0.0 - - - - - - -
20/01:30pm 21.0 SE 8 9 - - 0.0 - - - - - - -
20/01:00pm 20.8 SE 10 11 - - 0.0 - - - - - - -
20/12:30pm 20.9 ESE 9 10 - - 0.0 - - - - - - -
20/12:00pm 20.2 SSE 8 9 - - 0.0 - - - - - - -
20/11:30am 19.9 S 7 8 - - 0.0 - - - - - - -
20/11:00am 20.2 SSW 9 11 - - 0.0 - - - - - - -
20/10:30am 20.7 S 7 9 - - 0.0 - - - - - - -
20/10:00am 20.0 S 5 7 - - 0.0 - - - - - - -
20/09:30am 20.4 S 4 6 - - 0.0 - - - - - - -
20/09:00am 19.9 S 3 4 - - 0.0 - - - - - - -
20/08:30am 18.1 ENE 2 4 - - 0.0 - - - - - - -
20/08:00am 17.1 ENE 8 11 - - 0.0 - - - - - - -
20/07:30am 16.9 SE 7 13 - - 0.0 - - - - - - -

Other Formats:

Comma delimited format used in spreadsheet applications
http://www.bom.gov.au/fwo/IDN60701/IDN60701.94774.axf

JavaScript Object Notation format (JSON) in row-major order
http://www.bom.gov.au/fwo/IDN60701/IDN60701.94774.json